Time;durP1;ratioP1;P1;durP2;ratioP2;P2;SDS_P1;SDS_P2;PMS_P1;PMS_P2;Temp;Humidity;BMP_temperature;BMP_pressure;BME280_temperature;BME280_humidity;BME280_pressure;Samples;Min_cycle;Max_cycle;Signal;HPM_P1;HPM_P2
2021/05/13 00:04:32;;;;;;;16.05;7.93;;;11.10;87.50;;;;;;4842731;29;20095;-89
2021/05/13 00:10:23;;;;;;;12.75;6.85;;;11.10;87.50;;;;;;4842722;29;20029;-89
2021/05/13 00:16:12;;;;;;;14.43;7.32;;;11.00;87.30;;;;;;4842764;29;20059;-89
2021/05/13 00:22:00;;;;;;;17.48;8.52;;;11.00;87.30;;;;;;4842816;29;20072;-89
2021/05/13 00:27:50;;;;;;;15.50;7.95;;;11.00;87.50;;;;;;4842828;29;20028;-87
2021/05/13 00:33:38;;;;;;;15.90;7.78;;;11.00;87.50;;;;;;4842682;29;20048;-87
2021/05/13 00:39:27;;;;;;;13.48;7.57;;;10.90;87.40;;;;;;4842703;29;20407;-90
2021/05/13 00:49:18;;;;;;;14.00;7.75;;;10.80;87.00;;;;;;4843406;29;20059;-88
2021/05/13 00:55:09;;;;;;;18.20;8.52;;;10.70;87.30;;;;;;4847315;29;20045;-88
2021/05/13 01:06:51;;;;;;;15.63;8.98;;;10.60;87.30;;;;;;4847779;29;20040;-89
2021/05/13 01:12:40;;;;;;;15.63;7.68;;;10.50;87.30;;;;;;4845918;29;20094;-89
2021/05/13 01:18:29;;;;;;;13.32;7.35;;;10.50;87.30;;;;;;4845363;29;20523;-89
2021/05/13 01:24:19;;;;;;;16.15;8.52;;;10.40;87.40;;;;;;4845360;29;20099;-88
2021/05/13 01:30:07;;;;;;;11.80;6.13;;;10.40;87.40;;;;;;4845080;29;20414;-89
2021/05/13 01:35:55;;;;;;;16.10;8.15;;;10.40;87.40;;;;;;4845199;29;20098;-89
2021/05/13 01:41:43;;;;;;;14.15;7.75;;;10.30;87.50;;;;;;4844815;29;20098;-88
2021/05/13 01:51:33;;;;;;;14.88;8.25;;;10.40;87.60;;;;;;4845003;29;20491;-88
2021/05/13 01:57:22;;;;;;;18.25;8.82;;;10.40;87.70;;;;;;4844444;29;20403;-89
2021/05/13 02:03:11;;;;;;;18.35;10.15;;;10.30;87.40;;;;;;4844619;29;20037;-90
2021/05/13 02:09:00;;;;;;;15.63;8.77;;;10.30;87.70;;;;;;4844416;29;20090;-89
2021/05/13 02:14:49;;;;;;;15.95;8.25;;;10.40;87.60;;;;;;4845457;29;20125;-86
2021/05/13 02:20:38;;;;;;;14.63;8.07;;;10.30;87.70;;;;;;4844483;29;20057;-92
2021/05/13 02:26:26;;;;;;;17.63;9.27;;;10.40;87.80;;;;;;4844947;29;20068;-91
2021/05/13 02:32:16;;;;;;;19.90;8.55;;;10.40;87.70;;;;;;4844701;29;20075;-91
2021/05/13 02:38:04;;;;;;;14.88;8.43;;;10.40;87.80;;;;;;4844167;29;20098;-90
2021/05/13 02:43:53;;;;;;;16.58;8.88;;;10.30;87.60;;;;;;4844586;29;20037;-91
2021/05/13 02:53:37;;;;;;;17.08;9.02;;;10.40;87.80;;;;;;4843935;29;20222;-89
2021/05/13 03:06:19;;;;;;;15.52;8.48;;;10.40;87.60;;;;;;4843331;29;20094;-89
2021/05/13 03:12:08;;;;;;;14.85;8.27;;;10.30;87.80;;;;;;4843954;29;20111;-91
2021/05/13 03:17:57;;;;;;;16.42;9.40;;;10.30;87.60;;;;;;4843524;29;20052;-91
2021/05/13 03:23:53;;;;;;;17.23;9.35;;;10.20;87.60;;;;;;4849425;29;20037;-92
2021/05/13 03:29:41;;;;;;;14.85;8.00;;;10.30;87.60;;;;;;4843178;29;20129;-90
2021/05/13 03:35:29;;;;;;;15.38;8.23;;;10.30;87.80;;;;;;4845365;29;20144;-89
2021/05/13 03:41:18;;;;;;;16.92;8.52;;;10.20;87.70;;;;;;4843283;29;20150;-90
2021/05/13 03:47:06;;;;;;;16.42;8.00;;;10.20;87.90;;;;;;4843079;29;20037;-89
2021/05/13 03:56:55;;;;;;;16.70;8.50;;;10.30;87.90;;;;;;4842836;29;20073;-88
2021/05/13 04:02:44;;;;;;;12.13;6.22;;;10.30;88.00;;;;;;4842847;29;20548;-91
2021/05/13 04:08:33;;;;;;;14.60;8.35;;;10.40;87.90;;;;;;4842626;29;20051;-88
2021/05/13 04:14:22;;;;;;;14.45;6.82;;;10.40;88.10;;;;;;4842647;29;20110;-88
2021/05/13 04:20:10;;;;;;;16.88;8.63;;;10.40;88.00;;;;;;4842882;29;20045;-89
2021/05/13 04:25:58;;;;;;;12.02;6.85;;;10.50;88.00;;;;;;4842769;29;20059;-90
2021/05/13 04:31:48;;;;;;;13.85;7.25;;;10.50;88.10;;;;;;4846025;29;20033;-87
2021/05/13 04:37:37;;;;;;;14.90;7.88;;;10.50;88.10;;;;;;4845947;29;20571;-89
2021/05/13 04:43:33;;;;;;;14.27;7.32;;;10.60;88.30;;;;;;4845827;29;20029;-88
2021/05/13 04:49:21;;;;;;;14.80;7.65;;;10.70;88.20;;;;;;4845974;29;20125;-89
2021/05/13 04:59:05;;;;;;;13.27;7.18;;;10.80;88.40;;;;;;4840697;29;20154;-89
2021/05/13 05:04:55;;;;;;;14.13;7.43;;;10.80;88.10;;;;;;4845925;29;20036;-91
2021/05/13 05:10:45;;;;;;;13.40;7.82;;;10.90;88.10;;;;;;4852177;29;20056;-90
2021/05/13 05:16:35;;;;;;;16.02;7.65;;;10.90;88.50;;;;;;4852393;29;20045;-89
2021/05/13 05:22:24;;;;;;;13.73;7.20;;;11.00;88.30;;;;;;4847776;29;20053;-88
2021/05/13 05:28:13;;;;;;;13.27;7.03;;;11.10;88.80;;;;;;4845340;29;20025;-90
2021/05/13 05:34:02;;;;;;;16.42;7.45;;;11.30;88.70;;;;;;4845128;29;20502;-86
2021/05/13 05:39:51;;;;;;;13.68;6.78;;;11.30;88.60;;;;;;4845295;29;20187;-87
2021/05/13 05:45:40;;;;;;;11.57;6.30;;;11.40;88.30;;;;;;4845446;29;20033;-87
2021/05/13 05:51:28;;;;;;;16.13;7.03;;;11.40;88.40;;;;;;4845188;29;20133;-87
2021/05/13 06:01:11;;;;;;;12.57;6.25;;;11.60;88.70;;;;;;4844959;29;20053;-85
2021/05/13 06:07:00;;;;;;;12.25;6.63;;;11.80;89.30;;;;;;4850953;29;20052;-86
2021/05/13 06:12:49;;;;;;;11.63;6.32;;;12.00;89.20;;;;;;4844659;29;20033;-86
2021/05/13 06:18:55;;;;;;;12.93;6.20;;;12.10;89.10;;;;;;4844498;29;20091;-85
2021/05/13 06:24:45;;;;;;;12.90;6.72;;;12.40;89.40;;;;;;4844370;29;20052;-85
2021/05/13 06:30:39;;;;;;;11.85;6.22;;;12.50;89.20;;;;;;4844000;29;20094;-83
2021/05/13 06:46:23;;;;;;;11.43;6.13;;;13.40;89.50;;;;;;4844041;29;20044;-83
2021/05/13 06:52:11;;;;;;;12.23;5.80;;;13.70;90.00;;;;;;4843658;29;20077;-83
2021/05/13 07:01:37;;;;;;;10.10;5.38;;;14.30;90.00;;;;;;4843651;29;20110;-84
2021/05/13 07:07:25;;;;;;;10.02;4.82;;;14.70;90.20;;;;;;4843594;29;20049;-84
2021/05/13 07:13:14;;;;;;;10.10;5.45;;;15.10;90.10;;;;;;4843526;29;20098;-83
2021/05/13 07:19:03;;;;;;;8.15;4.07;;;15.40;89.70;;;;;;4843171;29;20513;-84
2021/05/13 07:24:53;;;;;;;10.23;4.20;;;15.60;89.20;;;;;;4843362;29;20083;-84
2021/05/13 07:30:44;;;;;;;10.07;4.50;;;15.70;89.00;;;;;;4843368;29;20057;-83
2021/05/13 07:36:33;;;;;;;8.68;4.43;;;16.00;89.40;;;;;;4843361;29;20072;-84
2021/05/13 07:42:22;;;;;;;9.45;4.68;;;16.10;89.10;;;;;;4843016;29;20430;-84
2021/05/13 07:48:11;;;;;;;9.27;4.00;;;16.50;90.20;;;;;;4843025;29;20459;-84
2021/05/13 07:54:01;;;;;;;8.45;4.03;;;16.70;89.10;;;;;;4843079;29;20152;-84
2021/05/13 08:03:38;;;;;;;10.15;4.00;;;16.80;89.00;;;;;;4843100;29;20049;-84
2021/05/13 08:09:26;;;;;;;5.90;2.88;;;17.10;89.40;;;;;;4846439;29;20037;-85
2021/05/13 08:15:15;;;;;;;7.32;3.25;;;17.10;87.50;;;;;;4846739;29;20036;-83
2021/05/13 08:21:04;;;;;;;6.53;3.08;;;17.10;89.00;;;;;;4846614;29;20068;-83
2021/05/13 08:26:54;;;;;;;7.43;3.50;;;17.40;88.20;;;;;;4846339;29;20081;-83
2021/05/13 08:32:42;;;;;;;6.97;3.05;;;17.50;88.00;;;;;;4846485;29;20094;-84
2021/05/13 08:38:30;;;;;;;6.25;2.88;;;17.60;88.70;;;;;;4845925;29;20056;-82
2021/05/13 08:44:19;;;;;;;7.57;3.15;;;18.00;88.50;;;;;;4846374;29;20495;-82
2021/05/13 08:50:07;;;;;;;5.97;2.58;;;18.30;88.30;;;;;;4847755;29;20510;-82
2021/05/13 08:55:56;;;;;;;7.25;2.90;;;18.50;88.20;;;;;;4846048;29;20503;-82
2021/05/13 09:02:00;;;;;;;6.80;2.75;;;18.70;88.70;;;;;;4843971;29;20116;-84
2021/05/13 09:07:55;;;;;;;8.00;2.83;;;19.10;88.20;;;;;;4845502;29;20041;-84
2021/05/13 09:13:48;;;;;;;6.32;3.05;;;19.30;86.80;;;;;;4845542;29;20037;-84
2021/05/13 09:19:39;;;;;;;8.13;2.85;;;19.20;86.80;;;;;;4845152;29;20057;-85
2021/05/13 09:25:27;;;;;;;8.80;3.30;;;19.50;88.10;;;;;;4845176;29;20060;-82
2021/05/13 09:31:42;;;;;;;6.57;3.30;;;20.00;87.70;;;;;;4845218;29;20131;-84
2021/05/13 09:37:42;;;;;;;9.00;3.33;;;20.50;88.70;;;;;;4844849;29;20084;-83
2021/05/13 09:43:34;;;;;;;7.38;3.38;;;20.50;85.50;;;;;;4845302;29;20105;-84
2021/05/13 09:49:23;;;;;;;10.43;4.38;;;20.30;85.50;;;;;;4845361;29;20094;-85
2021/05/13 09:55:20;;;;;;;6.55;2.90;;;20.80;87.60;;;;;;4844794;29;20436;-85
2021/05/13 10:01:15;;;;;;;6.10;3.10;;;21.20;86.40;;;;;;4844544;29;20130;-85
2021/05/13 10:07:04;;;;;;;7.28;3.15;;;21.40;85.40;;;;;;4844375;29;20037;-85
2021/05/13 10:12:55;;;;;;;5.78;2.90;;;21.10;83.70;;;;;;4844271;29;20040;-85
2021/05/13 10:18:49;;;;;;;6.85;3.00;;;21.50;87.10;;;;;;4844039;29;20084;-84
2021/05/13 10:24:37;;;;;;;8.63;2.92;;;21.70;85.50;;;;;;4843988;29;20608;-85
2021/05/13 10:30:34;;;;;;;12.70;3.53;;;21.90;83.90;;;;;;4843959;29;20559;-84
2021/05/13 10:36:28;;;;;;;7.60;3.20;;;21.90;84.00;;;;;;4844151;29;20057;-85
2021/05/13 10:42:43;;;;;;;6.20;2.97;;;22.40;85.40;;;;;;4843738;29;20041;-85
2021/05/13 10:48:41;;;;;;;5.57;2.67;;;22.60;83.20;;;;;;4843861;29;20040;-85
2021/05/13 10:54:29;;;;;;;7.63;3.10;;;22.80;82.50;;;;;;4843863;29;20048;-85
2021/05/13 11:00:18;;;;;;;5.35;2.60;;;23.00;83.40;;;;;;4843790;29;20149;-85
2021/05/13 11:07:01;;;;;;;8.13;3.25;;;23.10;81.80;;;;;;4843369;29;20033;-85
2021/05/13 11:13:11;;;;;;;5.70;2.70;;;22.80;81.20;;;;;;4751559;30;20043;-85
2021/05/13 11:19:18;;;;;;;8.40;2.97;;;23.00;81.10;;;;;;4788399;29;20044;-85
2021/05/13 11:25:09;;;;;;;7.80;3.20;;;23.20;80.50;;;;;;4842996;29;20518;-85
2021/05/13 11:31:07;;;;;;;9.25;3.10;;;22.90;78.50;;;;;;4847362;29;20098;-85
2021/05/13 11:36:58;;;;;;;8.20;3.42;;;22.50;78.80;;;;;;4843179;29;20033;-85
2021/05/13 11:42:48;;;;;;;8.13;4.20;;;22.90;80.80;;;;;;4842904;29;20044;-85
2021/05/13 11:48:42;;;;;;;11.93;7.88;;;23.20;79.20;;;;;;4842786;29;20548;-85
2021/05/13 11:54:34;;;;;;;6.35;2.95;;;23.10;78.70;;;;;;4843009;29;20075;-85
2021/05/13 12:00:22;;;;;;;5.70;2.53;;;23.20;78.50;;;;;;4842840;29;20057;-85
2021/05/13 12:06:11;;;;;;;5.95;2.60;;;23.00;77.40;;;;;;4842828;29;20041;-85
2021/05/13 12:12:04;;;;;;;6.68;2.80;;;22.90;77.00;;;;;;4842544;29;20053;-85
2021/05/13 12:17:53;;;;;;;8.02;3.33;;;22.50;76.30;;;;;;4842411;29;20053;-85
2021/05/13 12:23:43;;;;;;;9.35;3.05;;;22.30;76.20;;;;;;4842669;29;20032;-85
2021/05/13 12:29:36;;;;;;;6.60;3.03;;;22.00;74.70;;;;;;4842668;29;20045;-85
2021/05/13 12:35:29;;;;;;;5.72;2.85;;;21.50;75.40;;;;;;4842338;29;20114;-85
2021/05/13 12:41:25;;;;;;;5.45;2.70;;;21.20;76.30;;;;;;4842394;29;20497;-85
2021/05/13 12:47:13;;;;;;;6.32;3.03;;;21.30;76.10;;;;;;4842296;29;20037;-85
2021/05/13 12:53:20;;;;;;;7.43;3.40;;;21.00;74.90;;;;;;4845871;29;20086;-85
2021/05/13 12:59:13;;;;;;;6.22;3.00;;;20.60;74.10;;;;;;4845548;29;20098;-85
2021/05/13 13:08:53;;;;;;;6.47;3.00;;;20.50;75.10;;;;;;4845768;29;20093;-85
2021/05/13 13:14:46;;;;;;;7.25;3.17;;;20.60;75.10;;;;;;4845936;29;20053;-85
2021/05/13 13:20:35;;;;;;;7.25;3.33;;;20.60;75.00;;;;;;4845228;29;20503;-85
2021/05/13 13:26:30;;;;;;;8.18;3.15;;;20.50;74.60;;;;;;4845404;29;20028;-85
2021/05/13 13:32:18;;;;;;;9.35;3.40;;;20.60;74.90;;;;;;4845354;29;20392;-85
2021/05/13 13:38:11;;;;;;;6.32;2.95;;;20.60;74.30;;;;;;4844813;29;20089;-85
2021/05/13 13:44:01;;;;;;;7.13;3.28;;;20.40;74.00;;;;;;4844883;29;20041;-85
2021/05/13 13:49:50;;;;;;;6.18;2.85;;;20.10;73.70;;;;;;4844788;29;20041;-84
2021/05/13 13:55:39;;;;;;;7.85;3.65;;;19.70;73.30;;;;;;4844645;29;20110;-85
2021/05/13 14:01:29;;;;;;;7.53;3.25;;;19.60;74.30;;;;;;4845092;29;20082;-84
2021/05/13 14:11:21;;;;;;;11.38;3.80;;;19.50;74.90;;;;;;4851258;29;20407;-85
2021/05/13 14:17:10;;;;;;;6.65;3.30;;;19.60;75.10;;;;;;4844599;29;20122;-84
2021/05/13 14:22:59;;;;;;;8.27;4.05;;;19.90;75.80;;;;;;4844088;29;20037;-84
2021/05/13 14:28:46;;;;;;;8.18;3.90;;;20.20;75.40;;;;;;4844680;29;20610;-83
2021/05/13 14:34:34;;;;;;;8.55;3.53;;;20.50;75.20;;;;;;4844026;29;20041;-84
2021/05/13 14:40:24;;;;;;;8.23;3.30;;;20.60;74.30;;;;;;4844090;29;20072;-83
2021/05/13 14:46:13;;;;;;;12.40;5.30;;;19.80;71.20;;;;;;4844090;29;20387;-83
2021/05/13 14:52:01;;;;;;;2.92;1.40;;;18.40;70.30;;;;;;4844282;29;20536;-83
2021/05/13 14:57:50;;;;;;;3.40;1.70;;;17.70;71.50;;;;;;4843827;29;20045;-83
2021/05/13 15:03:38;;;;;;;3.58;1.85;;;17.50;73.30;;;;;;4843590;29;20041;-83
2021/05/13 15:13:27;;;;;;;4.82;2.22;;;17.40;73.90;;;;;;4843188;29;20403;-82
2021/05/13 15:19:16;;;;;;;4.00;2.38;;;17.80;74.70;;;;;;4843474;29;20184;-83
2021/05/13 15:25:04;;;;;;;4.82;2.65;;;18.10;74.70;;;;;;4843334;29;20044;-84
2021/05/13 15:30:53;;;;;;;5.30;2.38;;;18.30;74.50;;;;;;4843154;29;20089;-83
2021/05/13 15:36:45;;;;;;;5.40;2.00;;;18.50;74.50;;;;;;4843173;29;20094;-83
2021/05/13 15:42:34;;;;;;;4.72;2.30;;;18.60;74.30;;;;;;4843731;29;20067;-84
2021/05/13 15:48:22;;;;;;;8.68;3.28;;;18.70;73.70;;;;;;4843350;29;20550;-85
2021/05/13 15:54:11;;;;;;;6.63;2.65;;;18.60;73.90;;;;;;4843291;29;20089;-82
2021/05/13 16:00:00;;;;;;;4.05;2.33;;;18.60;74.00;;;;;;4843245;29;20114;-82
2021/05/13 16:05:47;;;;;;;5.88;2.28;;;18.70;74.10;;;;;;4843416;29;20121;-85
2021/05/13 16:15:29;;;;;;;6.22;3.08;;;18.60;74.20;;;;;;4843210;29;20053;-84
2021/05/13 16:21:18;;;;;;;5.22;2.20;;;18.90;74.80;;;;;;4842837;29;20163;-86
2021/05/13 16:27:07;;;;;;;4.30;1.95;;;18.90;74.70;;;;;;4845267;29;20060;-84
2021/05/13 16:32:55;;;;;;;4.68;2.10;;;19.10;74.60;;;;;;4846083;29;20037;-84
2021/05/13 16:38:44;;;;;;;5.40;2.50;;;19.30;74.60;;;;;;4845928;29;20060;-84
2021/05/13 16:44:33;;;;;;;6.05;3.15;;;19.50;74.50;;;;;;4846014;29;20041;-84
2021/05/13 16:51:07;;;;;;;4.45;2.22;;;19.30;73.40;;;;;;4848511;29;20125;-88
2021/05/13 16:56:55;;;;;;;6.05;2.90;;;18.90;72.10;;;;;;4771691;30;20038;-85
2021/05/13 17:02:49;;;;;;;9.55;4.00;;;18.50;72.00;;;;;;4791092;29;20048;-85
2021/05/13 17:08:39;;;;;;;11.80;6.28;;;18.10;72.80;;;;;;4845328;29;20124;-84
2021/05/13 17:18:31;;;;;;;5.47;2.58;;;17.50;72.90;;;;;;4845372;29;20135;-86
2021/05/13 17:24:21;;;;;;;9.40;4.03;;;17.40;72.90;;;;;;4845224;29;20037;-87
2021/05/13 17:30:12;;;;;;;5.10;2.40;;;16.90;71.80;;;;;;4845279;29;20090;-86
2021/05/13 17:36:01;;;;;;;4.20;2.25;;;16.50;72.60;;;;;;4845109;29;20121;-85
2021/05/13 17:41:49;;;;;;;4.03;1.90;;;16.30;73.20;;;;;;4845033;29;20090;-85
2021/05/13 17:47:38;;;;;;;13.05;7.72;;;16.00;72.10;;;;;;4844660;29;20033;-85
2021/05/13 17:53:27;;;;;;;5.18;1.75;;;15.70;72.00;;;;;;4844576;29;20540;-85
2021/05/13 17:59:17;;;;;;;1.50;1.40;;;15.40;72.40;;;;;;4844656;29;20102;-86
2021/05/13 18:05:08;;;;;;;2.38;1.15;;;15.20;72.40;;;;;;4845106;29;20042;-86
2021/05/13 18:10:57;;;;;;;5.85;2.20;;;15.00;72.30;;;;;;4847826;29;20025;-85
2021/05/13 18:20:47;;;;;;;2.05;1.40;;;15.00;72.90;;;;;;4846536;29;20130;-84
2021/05/13 18:26:36;;;;;;;1.75;1.40;;;14.80;72.60;;;;;;4844946;29;20087;-85
2021/05/13 18:32:24;;;;;;;1.63;1.30;;;14.80;72.80;;;;;;4844537;29;20059;-84
2021/05/13 18:38:14;;;;;;;2.05;1.45;;;14.70;72.80;;;;;;4844364;29;20572;-86
2021/05/13 19:15:00;;;;;;;3.05;1.80;;;14.10;73.20;;;;;;4577613;30;20128;-89
2021/05/13 19:17:27;;;;;;;2.75;1.67;;;14.00;73.10;;;;;;4747296;29;20558;-90
2021/05/13 19:23:16;;;;;;;2.70;1.70;;;14.10;73.30;;;;;;4843501;29;20036;-89
2021/05/13 19:29:18;;;;;;;2.67;1.67;;;14.00;73.10;;;;;;4843574;29;20114;-90
2021/05/13 19:35:16;;;;;;;2.75;1.80;;;13.90;72.90;;;;;;4849510;29;20056;-89
2021/05/13 19:41:04;;;;;;;3.70;1.80;;;13.80;72.80;;;;;;4843120;29;20078;-88
2021/05/13 19:46:54;;;;;;;4.05;1.80;;;13.70;73.20;;;;;;4843175;29;20041;-89
2021/05/13 19:52:46;;;;;;;5.55;2.03;;;13.60;73.00;;;;;;4843053;29;20106;-89
2021/05/13 19:58:41;;;;;;;5.57;2.20;;;13.60;73.40;;;;;;4842547;29;20037;-89
2021/05/13 20:04:39;;;;;;;2.95;1.95;;;13.60;73.30;;;;;;4849305;29;20117;-91
2021/05/13 20:10:31;;;;;;;3.13;1.60;;;13.50;73.40;;;;;;4848703;29;20087;-90
2021/05/13 20:16:20;;;;;;;6.13;1.98;;;13.40;73.30;;;;;;4848590;29;20162;-90
2021/05/13 20:22:15;;;;;;;5.18;1.90;;;13.30;73.30;;;;;;4849085;29;20562;-90
2021/05/13 20:28:05;;;;;;;3.90;1.95;;;13.30;73.40;;;;;;4848740;29;20501;-88
2021/05/13 20:33:55;;;;;;;4.10;2.20;;;13.20;73.50;;;;;;4848883;29;20490;-89
2021/05/13 20:39:44;;;;;;;2.97;1.88;;;13.10;73.40;;;;;;4848465;29;20048;-88
2021/05/13 20:45:36;;;;;;;2.67;1.88;;;12.90;73.20;;;;;;4848540;29;20033;-87
2021/05/13 21:03:27;;;;;;;4.05;2.00;;;12.40;74.30;;;;;;4848634;29;20044;-88
2021/05/13 21:21:39;;;;;;;4.22;1.90;;;12.50;75.40;;;;;;4845726;29;20048;-90
2021/05/13 21:27:53;;;;;;;4.55;2.15;;;12.40;75.10;;;;;;4845231;29;20069;-89
2021/05/13 21:33:42;;;;;;;4.95;2.30;;;12.40;75.50;;;;;;4845457;29;20049;-90
2021/05/13 21:39:31;;;;;;;5.50;2.17;;;12.40;75.60;;;;;;4845072;29;20135;-90
2021/05/13 21:45:21;;;;;;;5.50;2.22;;;12.40;75.70;;;;;;4845188;29;20044;-88
2021/05/13 21:51:11;;;;;;;4.93;2.13;;;12.40;76.00;;;;;;4844829;29;20460;-89
2021/05/13 21:57:00;;;;;;;4.97;2.15;;;12.30;76.10;;;;;;4844977;29;20109;-89
2021/05/13 22:02:50;;;;;;;4.10;2.25;;;12.30;76.40;;;;;;4844620;29;20182;-89
2021/05/13 22:08:39;;;;;;;4.75;2.17;;;12.30;76.60;;;;;;4844555;29;20052;-89
2021/05/13 22:14:28;;;;;;;3.75;1.60;;;12.30;76.70;;;;;;4844415;29;20033;-89
2021/05/13 22:24:16;;;;;;;3.42;1.95;;;12.20;77.00;;;;;;4837744;29;20049;-89
2021/05/13 22:30:05;;;;;;;3.25;1.80;;;12.30;77.40;;;;;;4852234;29;20103;-89
2021/05/13 22:35:54;;;;;;;2.85;1.83;;;12.20;77.40;;;;;;4848722;29;20090;-88
2021/05/13 22:41:42;;;;;;;3.13;2.03;;;12.20;77.70;;;;;;4849111;29;20056;-89
2021/05/13 22:47:31;;;;;;;2.58;1.80;;;12.20;77.70;;;;;;4845019;29;20052;-90
2021/05/13 22:53:26;;;;;;;2.03;1.50;;;12.20;78.10;;;;;;4844250;29;20121;-90
2021/05/13 22:59:14;;;;;;;3.60;1.73;;;12.10;78.00;;;;;;4843684;29;20067;-90
2021/05/13 23:05:03;;;;;;;2.38;1.50;;;12.10;78.20;;;;;;4843781;29;20037;-89
2021/05/13 23:10:53;;;;;;;2.17;1.50;;;12.00;78.20;;;;;;4843573;29;20041;-89
2021/05/13 23:16:42;;;;;;;1.63;1.25;;;12.00;78.30;;;;;;4843752;29;20037;-88
2021/05/13 23:26:24;;;;;;;2.10;1.40;;;11.90;78.40;;;;;;4843880;29;20451;-91
2021/05/13 23:32:12;;;;;;;1.67;1.35;;;11.90;78.60;;;;;;4843387;29;20551;-89
2021/05/13 23:38:01;;;;;;;1.50;1.20;;;11.80;78.80;;;;;;4843269;29;20037;-90
2021/05/13 23:43:49;;;;;;;2.17;1.50;;;11.80;78.80;;;;;;4843592;29;20044;-90
2021/05/13 23:49:38;;;;;;;1.85;1.52;;;11.80;79.10;;;;;;4843300;29;20098;-87
2021/05/13 23:55:28;;;;;;;2.17;1.50;;;11.80;79.10;;;;;;4843216;29;20045;-87
